createdAt,value
2018-09-23T00:00:58.860Z,22.00
2018-09-23T00:01:58.854Z,25.10
2018-09-23T00:02:58.835Z,19.30
2018-09-23T00:03:58.826Z,21.00
2018-09-23T00:04:58.836Z,19.30
2018-09-23T00:05:58.810Z,23.00
2018-09-23T00:06:58.793Z,19.40
2018-09-23T00:07:58.783Z,20.10
2018-09-23T00:08:58.777Z,20.80
2018-09-23T00:09:58.786Z,21.10
2018-09-23T00:10:58.759Z,22.10
2018-09-23T00:11:58.763Z,22.40
2018-09-23T00:12:58.774Z,21.00
2018-09-23T00:13:58.736Z,26.50
2018-09-23T00:14:58.708Z,26.10
2018-09-23T00:15:58.885Z,24.40
2018-09-23T00:16:58.715Z,25.80
2018-09-23T00:17:59.044Z,26.00
2018-09-23T00:18:58.686Z,26.70
2018-09-23T00:19:58.660Z,32.40
2018-09-23T00:20:58.675Z,27.70
2018-09-23T00:21:58.629Z,31.10
2018-09-23T00:22:58.625Z,34.30
2018-09-23T00:23:58.614Z,34.10
2018-09-23T00:24:58.618Z,35.90
2018-09-23T00:25:58.588Z,34.90
2018-09-23T00:26:58.577Z,34.00
2018-09-23T00:27:58.569Z,32.10
2018-09-23T00:28:58.559Z,36.90
2018-09-23T00:29:58.586Z,38.20
2018-09-23T00:30:58.564Z,39.20
2018-09-23T00:31:58.535Z,39.90
2018-09-23T00:32:58.523Z,38.60
2018-09-23T00:33:58.502Z,37.10
2018-09-23T00:34:58.491Z,45.20
2018-09-23T00:35:58.484Z,41.60
2018-09-23T00:36:58.496Z,41.00
2018-09-23T00:37:58.465Z,38.50
2018-09-23T00:38:58.448Z,45.60
2018-09-23T00:39:58.462Z,42.20
2018-09-23T00:40:58.429Z,50.40
2018-09-23T00:41:58.421Z,41.10
2018-09-23T00:42:58.410Z,47.50
2018-09-23T00:43:58.404Z,44.00
2018-09-23T00:44:58.384Z,47.30
2018-09-23T00:45:58.393Z,42.70
2018-09-23T00:46:58.360Z,41.90
2018-09-23T00:47:58.357Z,43.90
2018-09-23T00:48:58.343Z,46.10
2018-09-23T00:49:58.352Z,48.40
2018-09-23T00:50:58.344Z,44.60
2018-09-23T00:51:58.310Z,46.30
2018-09-23T00:52:58.329Z,51.10
2018-09-23T00:53:58.286Z,46.30
2018-09-23T00:54:58.314Z,45.80
2018-09-23T00:55:58.269Z,43.00
2018-09-23T00:56:58.261Z,44.50
2018-09-23T00:57:58.242Z,48.50
2018-09-23T00:58:58.255Z,43.80
2018-09-23T00:59:58.230Z,41.10
2018-09-23T01:00:58.236Z,42.80
2018-09-23T01:01:58.212Z,52.00
2018-09-23T01:02:58.195Z,39.80
2018-09-23T01:03:58.181Z,46.90
2018-09-23T01:04:58.167Z,43.30
2018-09-23T01:05:58.155Z,36.30
2018-09-23T01:06:58.165Z,34.70
2018-09-23T01:07:58.136Z,39.40
2018-09-23T01:08:58.126Z,46.60
2018-09-23T01:09:58.138Z,46.40
2018-09-23T01:10:58.109Z,48.10
2018-09-23T01:11:58.091Z,47.10
2018-09-23T01:12:58.083Z,46.40
2018-09-23T01:13:58.075Z,41.30
2018-09-23T01:14:58.083Z,42.40
2018-09-23T01:15:58.054Z,36.20
2018-09-23T01:16:58.041Z,36.30
2018-09-23T01:17:58.025Z,46.40
2018-09-23T01:18:58.033Z,49.20
2018-09-23T01:19:58.027Z,37.00
2018-09-23T01:20:57.997Z,50.60
2018-09-23T01:21:57.988Z,45.20
2018-09-23T01:22:57.977Z,48.90
2018-09-23T01:23:57.967Z,37.60
2018-09-23T01:24:57.952Z,48.60
2018-09-23T01:25:57.961Z,46.00
2018-09-23T01:26:57.936Z,42.00
2018-09-23T01:27:57.921Z,48.00
2018-09-23T01:28:57.910Z,38.20
2018-09-23T01:29:57.896Z,45.70
2018-09-23T01:30:57.902Z,47.70
2018-09-23T01:31:57.887Z,32.80
2018-09-23T01:32:57.863Z,50.60
2018-09-23T01:33:57.871Z,59.10
2018-09-23T01:34:57.843Z,71.60
2018-09-23T01:35:57.857Z,58.40
2018-09-23T01:36:57.837Z,45.70
2018-09-23T01:37:57.814Z,47.20
2018-09-23T01:38:57.802Z,40.50
2018-09-23T01:39:57.799Z,37.70
2018-09-23T01:40:57.779Z,79.10
2018-09-23T01:41:57.794Z,47.00
2018-09-23T01:42:57.760Z,58.10
2018-09-23T01:43:57.784Z,51.90
2018-09-23T01:44:57.733Z,48.20
2018-09-23T01:45:57.726Z,62.70
2018-09-23T01:46:57.735Z,68.70
2018-09-23T01:47:57.702Z,67.80
2018-09-23T01:48:57.701Z,38.90
2018-09-23T01:49:57.684Z,57.40
2018-09-23T01:50:57.727Z,53.30
2018-09-23T01:51:57.666Z,64.80
2018-09-23T01:52:57.650Z,46.40
2018-09-23T01:53:57.639Z,60.30
2018-09-23T01:54:57.634Z,82.60
2018-09-23T01:55:57.635Z,59.30
2018-09-23T01:56:57.613Z,52.50
2018-09-23T01:57:57.599Z,55.70
2018-09-23T01:58:57.584Z,44.10
2018-09-23T01:59:57.590Z,57.90
2018-09-23T02:00:57.598Z,74.50
2018-09-23T02:01:57.555Z,49.90
2018-09-23T02:02:57.559Z,47.80
2018-09-23T02:03:57.535Z,49.40
2018-09-23T02:04:57.518Z,58.60
2018-09-23T02:05:57.511Z,52.40
2018-09-23T02:06:57.518Z,53.40
2018-09-23T02:07:57.486Z,53.10
2018-09-23T02:08:57.498Z,51.80
2018-09-23T02:09:57.468Z,37.90
2018-09-23T02:10:57.460Z,37.20
2018-09-23T02:11:57.469Z,46.40
2018-09-23T02:12:57.432Z,44.60
2018-09-23T02:13:57.428Z,44.40
2018-09-23T02:14:57.417Z,50.70
2018-09-23T02:15:57.428Z,61.10
2018-09-23T02:16:57.407Z,51.10
2018-09-23T02:17:57.380Z,37.20
2018-09-23T02:18:57.399Z,40.20
2018-09-23T02:19:57.358Z,41.80
2018-09-23T02:20:57.354Z,43.70
2018-09-23T02:21:57.340Z,41.80
2018-09-23T02:22:57.329Z,46.10
2018-09-23T02:23:57.321Z,36.90
2018-09-23T02:24:57.321Z,44.50
2018-09-23T02:25:57.299Z,37.70
2018-09-23T02:26:57.283Z,38.40
2018-09-23T02:27:57.272Z,41.40
2018-09-23T02:28:57.267Z,40.20
2018-09-23T02:29:57.271Z,40.50
2018-09-23T02:30:57.240Z,41.80
2018-09-23T02:31:57.228Z,45.60
2018-09-23T02:32:57.241Z,42.60
2018-09-23T02:33:57.214Z,47.40
2018-09-23T02:34:57.202Z,45.50
2018-09-23T02:35:57.199Z,41.30
2018-09-23T02:36:57.175Z,39.60
2018-09-23T02:37:57.189Z,44.30
2018-09-23T02:38:57.157Z,51.00
2018-09-23T02:39:57.143Z,50.70
2018-09-23T02:40:57.138Z,40.00
2018-09-23T02:41:57.128Z,41.20
2018-09-23T02:42:57.115Z,41.90
2018-09-23T02:43:57.122Z,39.30
2018-09-23T02:44:57.089Z,42.40
2018-09-23T02:45:57.096Z,45.50
2018-09-23T02:46:57.070Z,49.70
2018-09-23T02:47:57.066Z,41.30
2018-09-23T02:48:57.046Z,44.50
2018-09-23T02:49:57.035Z,48.50
2018-09-23T02:50:57.043Z,42.20
2018-09-23T02:51:57.013Z,42.60
2018-09-23T02:52:57.011Z,41.10
2018-09-23T02:53:56.995Z,41.00
2018-09-23T02:54:56.993Z,39.00
2018-09-23T02:55:56.995Z,40.40
2018-09-23T02:56:56.960Z,36.00
2018-09-23T02:57:56.956Z,41.20
2018-09-23T02:58:56.938Z,40.10
2018-09-23T02:59:56.925Z,42.60
2018-09-23T03:00:56.939Z,46.10
2018-09-23T03:01:56.911Z,41.00
2018-09-23T03:02:56.914Z,41.60
2018-09-23T03:03:56.883Z,42.30
2018-09-23T03:04:56.880Z,45.20
2018-09-23T03:05:56.867Z,39.50
2018-09-23T03:06:56.859Z,39.10
2018-09-23T03:07:56.878Z,44.30
2018-09-23T03:08:56.829Z,47.20
2018-09-23T03:09:56.832Z,47.50
2018-09-23T03:10:56.827Z,45.90
2018-09-23T03:11:56.799Z,36.60
2018-09-23T03:12:56.810Z,44.40
2018-09-23T03:13:56.794Z,44.40
2018-09-23T03:14:56.773Z,37.50
2018-09-23T03:15:56.765Z,39.10
2018-09-23T03:16:56.743Z,43.70
2018-09-23T03:17:56.752Z,48.40
2018-09-23T03:18:56.729Z,49.40
2018-09-23T03:19:56.718Z,48.30
2018-09-23T03:20:56.725Z,41.80
2018-09-23T03:21:56.703Z,48.00
2018-09-23T03:22:56.681Z,45.20
2018-09-23T03:23:56.668Z,44.80
2018-09-23T03:24:56.666Z,56.30
2018-09-23T03:25:56.652Z,48.10
2018-09-23T03:26:56.661Z,43.90
2018-09-23T03:27:56.635Z,53.30
2018-09-23T03:28:56.632Z,48.60
2018-09-23T03:29:56.611Z,48.90
2018-09-23T03:30:56.595Z,50.00
2018-09-23T03:31:56.584Z,49.20
2018-09-23T03:32:56.579Z,47.30
2018-09-23T03:33:56.603Z,49.50
2018-09-23T03:34:56.560Z,51.20
2018-09-23T03:35:56.539Z,55.50
2018-09-23T03:36:56.534Z,51.40
2018-09-23T03:37:56.521Z,59.80
2018-09-23T03:38:56.552Z,43.80
2018-09-23T03:39:56.502Z,41.20
2018-09-23T03:40:56.502Z,57.20
2018-09-23T03:41:56.476Z,53.90
2018-09-23T03:42:56.466Z,49.70
2018-09-23T03:43:56.452Z,58.30
2018-09-23T03:44:56.449Z,60.50
2018-09-23T03:45:56.453Z,58.00
2018-09-23T03:46:56.433Z,57.80
2018-09-23T03:47:56.417Z,61.10
2018-09-23T03:48:56.418Z,52.90
2018-09-23T03:49:56.390Z,47.10
2018-09-23T03:50:56.399Z,41.80
2018-09-23T03:51:56.376Z,40.70
2018-09-23T03:52:56.356Z,74.10
2018-09-23T03:53:56.368Z,70.50
2018-09-23T03:54:56.343Z,54.00
2018-09-23T03:55:56.353Z,57.80
2018-09-23T03:56:56.341Z,81.40
2018-09-23T03:57:56.383Z,46.50
2018-09-23T03:58:56.295Z,57.20
2018-09-23T03:59:56.281Z,55.40
2018-09-23T04:00:56.277Z,68.90
2018-09-23T04:01:56.281Z,52.30
2018-09-23T04:02:56.253Z,59.20
2018-09-23T04:03:56.263Z,58.90
2018-09-23T04:04:56.237Z,62.80
2018-09-23T04:05:56.218Z,57.40
2018-09-23T04:06:56.209Z,51.00
2018-09-23T04:07:56.219Z,71.60
2018-09-23T04:08:56.185Z,60.90
2018-09-23T04:09:56.177Z,66.70
2018-09-23T04:10:56.165Z,68.60
2018-09-23T04:11:56.197Z,54.50
2018-09-23T04:12:56.173Z,58.50
2018-09-23T04:13:56.137Z,64.70
2018-09-23T04:14:56.130Z,52.70
2018-09-23T04:15:56.115Z,53.10
2018-09-23T04:16:56.100Z,56.60
2018-09-23T04:17:56.088Z,41.70
2018-09-23T04:18:56.102Z,41.80
2018-09-23T04:19:56.072Z,65.70
2018-09-23T04:20:56.099Z,55.20
2018-09-23T04:21:56.050Z,48.40
2018-09-23T04:22:56.050Z,42.90
2018-09-23T04:23:56.022Z,39.00
2018-09-23T04:24:56.044Z,43.90
2018-09-23T04:25:56.006Z,42.60
2018-09-23T04:26:55.995Z,37.30
2018-09-23T04:27:55.985Z,41.70
2018-09-23T04:28:55.968Z,32.80
2018-09-23T04:29:55.977Z,32.90
2018-09-23T04:30:55.971Z,45.70
2018-09-23T04:31:55.935Z,29.60
2018-09-23T04:32:55.931Z,46.00
2018-09-23T04:33:55.918Z,45.90
2018-09-23T04:34:55.907Z,35.70
2018-09-23T04:35:55.915Z,39.50
2018-09-23T04:36:55.885Z,34.20
2018-09-23T04:37:55.880Z,31.00
2018-09-23T04:38:55.866Z,29.30
2018-09-23T04:39:55.856Z,25.90
2018-09-23T04:40:55.857Z,19.50
2018-09-23T04:41:55.829Z,22.80
2018-09-23T04:42:55.820Z,21.20
2018-09-23T04:43:55.807Z,28.90
2018-09-23T04:44:55.886Z,34.20
2018-09-23T04:45:55.796Z,37.10
2018-09-23T04:46:55.778Z,33.40
2018-09-23T04:47:55.811Z,37.50
2018-09-23T04:48:55.753Z,31.50
2018-09-23T04:49:55.743Z,32.70
2018-09-23T04:50:55.733Z,25.40
2018-09-23T04:51:55.718Z,28.00
2018-09-23T04:52:55.717Z,33.50
2018-09-23T04:53:55.727Z,33.30
2018-09-23T04:54:55.695Z,27.90
2018-09-23T04:55:55.676Z,30.50
2018-09-23T04:56:55.674Z,44.60
2018-09-23T04:57:55.659Z,35.20
2018-09-23T04:58:55.648Z,26.90
2018-09-23T04:59:55.658Z,31.70
2018-09-23T05:00:55.624Z,38.20
2018-09-23T05:01:55.613Z,27.10
2018-09-23T05:02:55.603Z,30.80
2018-09-23T05:03:55.590Z,28.80
2018-09-23T05:04:55.605Z,25.90
2018-09-23T05:05:55.589Z,34.90
2018-09-23T05:06:55.567Z,36.30
2018-09-23T05:07:55.553Z,34.00
2018-09-23T05:08:55.547Z,47.50
2018-09-23T05:09:55.527Z,61.70
2018-09-23T05:10:55.552Z,59.70
2018-09-23T05:11:55.512Z,55.00
2018-09-23T05:12:55.521Z,58.10
2018-09-23T05:13:55.489Z,65.50
2018-09-23T05:14:55.478Z,56.00
2018-09-23T05:15:55.468Z,65.60
2018-09-23T05:16:55.455Z,45.00
2018-09-23T05:17:55.444Z,66.10
2018-09-23T05:18:55.450Z,43.60
2018-09-23T05:19:55.440Z,61.10
2018-09-23T05:20:55.422Z,45.60
2018-09-23T05:21:55.400Z,53.60
2018-09-23T05:22:55.386Z,46.80
2018-09-23T05:23:55.406Z,60.60
2018-09-23T05:24:55.373Z,56.00
2018-09-23T05:25:55.356Z,55.60
2018-09-23T05:26:55.365Z,46.10
2018-09-23T05:27:55.329Z,46.80
2018-09-23T05:28:55.327Z,42.40
2018-09-23T05:29:55.333Z,57.30
2018-09-23T05:30:55.305Z,53.80
2018-09-23T05:31:55.293Z,80.40
2018-09-23T05:32:55.277Z,62.60
2018-09-23T05:33:55.269Z,57.30
2018-09-23T05:34:55.284Z,54.30
2018-09-23T05:35:55.265Z,45.60
2018-09-23T05:36:55.260Z,82.50
2018-09-23T05:37:55.257Z,51.00
2018-09-23T05:38:55.220Z,43.00
2018-09-23T05:39:55.211Z,60.50
2018-09-23T05:40:55.212Z,69.20
2018-09-23T05:41:55.190Z,83.20
2018-09-23T05:42:55.181Z,55.20
2018-09-23T05:43:55.208Z,82.10
2018-09-23T05:44:55.149Z,77.70
2018-09-23T05:45:55.157Z,56.50
2018-09-23T05:46:55.127Z,82.10
2018-09-23T05:47:55.115Z,82.40
2018-09-23T05:48:55.122Z,68.80
2018-09-23T05:49:55.098Z,63.50
2018-09-23T05:50:55.136Z,84.20
2018-09-23T05:51:55.077Z,72.40
2018-09-23T05:52:55.064Z,72.00
2018-09-23T05:53:55.052Z,74.30
2018-09-23T05:54:55.042Z,51.50
2018-09-23T05:55:55.067Z,56.70
2018-09-23T05:56:55.023Z,61.50
2018-09-23T05:57:55.010Z,57.30
2018-09-23T05:58:54.999Z,71.60
2018-09-23T05:59:55.012Z,62.30
2018-09-23T06:00:55.015Z,52.20
2018-09-23T06:01:54.969Z,70.60
2018-09-23T06:02:54.961Z,52.70
2018-09-23T06:03:54.956Z,69.10
2018-09-23T06:04:54.954Z,83.50
2018-09-23T06:05:54.949Z,66.00
2018-09-23T06:06:54.913Z,68.20
2018-09-23T06:07:54.906Z,52.40
2018-09-23T06:08:54.952Z,64.10
2018-09-23T06:09:54.882Z,65.80
2018-09-23T06:10:54.869Z,61.80
2018-09-23T06:11:54.895Z,55.10
2018-09-23T06:12:54.843Z,67.20
2018-09-23T06:13:54.842Z,54.60
2018-09-23T06:14:54.827Z,55.50
2018-09-23T06:15:54.819Z,47.20
2018-09-23T06:16:54.821Z,54.40
2018-09-23T06:17:54.794Z,58.90
2018-09-23T06:18:54.781Z,50.90
2018-09-23T06:19:54.769Z,66.70
2018-09-23T06:20:54.766Z,59.20
2018-09-23T06:21:54.771Z,56.50
2018-09-23T06:22:54.752Z,45.40
2018-09-23T06:23:54.731Z,53.60
2018-09-23T06:24:54.724Z,46.90
2018-09-23T06:25:54.722Z,38.90
2018-09-23T06:26:54.722Z,52.00
2018-09-23T06:27:54.696Z,36.80
2018-09-23T06:28:54.683Z,40.00
2018-09-23T06:29:54.665Z,39.60
2018-09-23T06:30:54.675Z,44.90
2018-09-23T06:31:55.041Z,33.40
2018-09-23T06:32:54.998Z,59.40
2018-09-23T06:33:54.619Z,41.70
2018-09-23T06:34:54.611Z,36.90
2018-09-23T06:35:54.625Z,37.90
2018-09-23T06:36:54.628Z,43.00
2018-09-23T06:37:54.574Z,34.60
2018-09-23T06:38:54.563Z,41.80
2018-09-23T06:39:54.565Z,38.70
2018-09-23T06:40:54.548Z,30.50
2018-09-23T06:41:54.555Z,36.20
2018-09-23T06:42:54.523Z,31.40
2018-09-23T06:43:54.556Z,37.20
2018-09-23T06:44:54.512Z,31.60
2018-09-23T06:45:54.574Z,35.60
2018-09-23T06:46:54.509Z,40.00
2018-09-23T06:47:54.462Z,46.10
2018-09-23T06:48:54.463Z,30.50
2018-09-23T06:49:54.442Z,24.70
2018-09-23T06:50:54.430Z,38.00
2018-09-23T06:51:54.426Z,48.40
2018-09-23T06:52:54.496Z,32.40
2018-09-23T06:53:54.426Z,25.00
2018-09-23T06:54:54.411Z,31.10
2018-09-23T06:55:54.384Z,30.20
2018-09-23T06:56:54.392Z,29.00
2018-09-23T06:57:54.356Z,25.40
2018-09-23T06:58:54.360Z,29.20
2018-09-23T06:59:54.341Z,22.80
2018-09-23T07:00:54.326Z,25.10
2018-09-23T07:01:54.312Z,24.70
2018-09-23T07:02:54.313Z,24.70
2018-09-23T07:03:54.310Z,31.40
2018-09-23T07:04:54.315Z,20.20
2018-09-23T07:05:54.289Z,17.80
2018-09-23T07:06:54.261Z,23.70
2018-09-23T07:07:54.253Z,28.40
2018-09-23T07:08:54.237Z,18.20
2018-09-23T07:09:54.228Z,25.80
2018-09-23T07:10:54.269Z,20.20
2018-09-23T07:11:54.229Z,31.90
2018-09-23T07:12:54.197Z,20.10
2018-09-23T07:13:54.255Z,27.50
2018-09-23T07:14:54.176Z,25.90
2018-09-23T07:15:54.212Z,24.10
2018-09-23T07:16:54.197Z,28.10
2018-09-23T07:17:54.153Z,27.40
2018-09-23T07:18:54.125Z,28.20
2018-09-23T07:19:54.116Z,25.10
2018-09-23T07:20:54.123Z,27.70
2018-09-23T07:21:54.109Z,27.70
2018-09-23T07:22:54.095Z,31.20
2018-09-23T07:23:54.188Z,34.90
2018-09-23T07:24:54.064Z,30.50
2018-09-23T07:25:54.073Z,37.10
2018-09-23T07:26:54.041Z,29.20
2018-09-23T07:27:54.030Z,29.00
2018-09-23T07:28:54.039Z,28.70
2018-09-23T07:29:54.010Z,29.80
2018-09-23T07:30:54.010Z,24.40
2018-09-23T07:31:53.989Z,38.40
2018-09-23T07:32:53.995Z,31.00
2018-09-23T07:33:53.962Z,35.10
2018-09-23T07:34:53.960Z,34.10
2018-09-23T07:35:54.056Z,38.70
2018-09-23T07:36:54.073Z,42.00
2018-09-23T07:37:53.925Z,35.80
2018-09-23T07:38:53.908Z,30.10
2018-09-23T07:39:53.929Z,35.60
2018-09-23T07:40:53.908Z,40.70
2018-09-23T07:41:53.880Z,42.90
2018-09-23T07:42:53.885Z,31.50
2018-09-23T07:43:53.884Z,30.60
2018-09-23T07:44:53.847Z,37.70
2018-09-23T07:45:53.844Z,42.60
2018-09-23T07:46:53.826Z,23.30
2018-09-23T07:47:53.826Z,32.70
2018-09-23T07:48:53.806Z,27.90
2018-09-23T07:49:53.822Z,28.00
2018-09-23T07:50:53.781Z,38.50
2018-09-23T07:51:53.777Z,23.70
2018-09-23T07:52:53.762Z,33.40
2018-09-23T07:53:53.752Z,31.00
2018-09-23T07:54:53.742Z,28.70
2018-09-23T07:55:53.756Z,38.20
2018-09-23T07:56:53.744Z,25.50
2018-09-23T07:57:53.710Z,41.30
2018-09-23T07:58:53.692Z,27.20
2018-09-23T07:59:53.702Z,29.70
2018-09-23T08:00:53.694Z,27.80
2018-09-23T08:01:53.660Z,34.80
2018-09-23T08:02:53.659Z,35.20
2018-09-23T08:03:53.661Z,36.60
2018-09-23T08:04:53.651Z,38.10
2018-09-23T08:05:53.636Z,29.70
2018-09-23T08:06:53.616Z,23.90
2018-09-23T08:07:53.618Z,23.60
2018-09-23T08:08:53.589Z,31.70
2018-09-23T08:09:53.582Z,31.30
2018-09-23T08:10:53.582Z,31.50
2018-09-23T08:11:53.556Z,23.70
2018-09-23T08:12:53.728Z,21.40
2018-09-23T08:13:53.930Z,28.30
2018-09-23T08:14:53.923Z,31.60
2018-09-23T08:15:53.548Z,22.80
2018-09-23T08:16:53.538Z,29.00
2018-09-23T08:17:53.539Z,21.30
2018-09-23T08:18:53.494Z,21.40
2018-09-23T08:19:53.519Z,23.30
2018-09-23T08:20:53.556Z,24.50
2018-09-23T08:21:53.452Z,23.70
2018-09-23T08:22:53.456Z,21.70
2018-09-23T08:23:53.422Z,17.80
2018-09-23T08:24:53.416Z,29.80
2018-09-23T08:25:53.431Z,18.80
2018-09-23T08:26:53.397Z,24.20
2018-09-23T08:27:53.386Z,15.60
2018-09-23T08:28:53.378Z,14.30
2018-09-23T08:29:53.379Z,12.20
2018-09-23T08:30:53.345Z,16.80
2018-09-23T08:31:53.337Z,14.50
2018-09-23T08:32:53.345Z,16.50
2018-09-23T08:33:53.327Z,10.00
2018-09-23T08:34:53.304Z,10.40
2018-09-23T08:35:53.312Z,12.70
2018-09-23T08:36:53.287Z,8.20
2018-09-23T08:37:53.294Z,10.10
2018-09-23T08:38:53.284Z,10.40
2018-09-23T08:39:53.274Z,10.20
2018-09-23T08:40:53.266Z,12.30
2018-09-23T08:41:53.227Z,9.70
2018-09-23T08:42:53.264Z,8.70
2018-09-23T08:43:53.207Z,5.50
2018-09-23T08:44:53.197Z,6.10
2018-09-23T08:45:53.196Z,10.00
2018-09-23T08:46:53.201Z,4.80
2018-09-23T08:47:53.195Z,6.70
2018-09-23T08:48:53.159Z,4.40
2018-09-23T08:49:53.150Z,3.70
2018-09-23T08:50:53.135Z,5.10
2018-09-23T08:51:53.221Z,5.30
2018-09-23T08:52:53.136Z,6.40
2018-09-23T08:53:53.095Z,4.50
2018-09-23T08:54:53.088Z,4.60
2018-09-23T08:55:53.097Z,7.20
2018-09-23T08:56:53.068Z,7.60
2018-09-23T08:57:53.058Z,6.30
2018-09-23T08:58:53.046Z,4.70
2018-09-23T08:59:53.051Z,3.30
2018-09-23T09:00:53.063Z,5.00
2018-09-23T09:01:53.010Z,4.90
2018-09-23T09:02:53.035Z,6.40
2018-09-23T09:03:53.025Z,4.90
2018-09-23T09:04:52.979Z,5.40
2018-09-23T09:05:52.979Z,7.20
2018-09-23T09:06:52.957Z,6.60
2018-09-23T09:07:52.947Z,5.00
2018-09-23T09:08:52.960Z,5.20
2018-09-23T09:09:52.927Z,6.90
2018-09-23T09:10:52.910Z,6.00
2018-09-23T09:11:52.955Z,6.40
2018-09-23T09:12:52.893Z,8.10
2018-09-23T09:13:52.880Z,10.60
2018-09-23T09:14:52.896Z,9.70
2018-09-23T09:15:52.860Z,5.60
2018-09-23T09:16:52.850Z,5.90
2018-09-23T09:17:52.838Z,6.80
2018-09-23T09:18:52.878Z,4.10
2018-09-23T09:19:52.813Z,4.10
2018-09-23T09:20:52.827Z,5.30
2018-09-23T09:21:52.794Z,5.40
2018-09-23T09:22:52.781Z,5.10
2018-09-23T09:23:52.772Z,5.90
2018-09-23T09:24:52.760Z,6.50
2018-09-23T09:25:52.768Z,5.30
2018-09-23T09:26:52.793Z,7.20
2018-09-23T09:27:52.733Z,5.10
2018-09-23T09:28:52.739Z,8.70
2018-09-23T09:29:52.710Z,11.40
2018-09-23T09:30:52.710Z,14.70
2018-09-23T09:31:52.681Z,15.30
2018-09-23T09:32:52.671Z,16.80
2018-09-23T09:33:52.684Z,13.40
2018-09-23T09:34:52.652Z,18.10
2018-09-23T09:35:52.666Z,16.00
2018-09-23T09:36:52.634Z,14.00
2018-09-23T09:37:52.626Z,17.30
2018-09-23T09:38:52.610Z,14.20
2018-09-23T09:39:52.606Z,13.80
2018-09-23T09:40:52.617Z,14.70
2018-09-23T09:41:52.607Z,14.80
2018-09-23T09:42:52.565Z,13.00
2018-09-23T09:43:52.600Z,32.80
2018-09-23T09:44:52.539Z,58.00
2018-09-23T09:45:52.549Z,28.80
2018-09-23T09:46:52.526Z,43.30
2018-09-23T09:47:52.525Z,26.40
2018-09-23T09:48:52.533Z,29.80
2018-09-23T09:49:52.519Z,15.00
2018-09-23T09:50:52.497Z,30.80
2018-09-23T09:51:52.490Z,17.10
2018-09-23T09:52:52.460Z,30.40
2018-09-23T09:53:52.446Z,24.50
2018-09-23T09:54:52.432Z,21.70
2018-09-23T09:55:52.440Z,11.10
2018-09-23T09:56:52.410Z,14.70
2018-09-23T09:57:52.399Z,14.70
2018-09-23T09:58:52.393Z,14.10
2018-09-23T09:59:52.402Z,16.00
2018-09-23T10:00:52.392Z,16.50
2018-09-23T10:01:52.397Z,26.00
2018-09-23T10:02:52.385Z,14.70
2018-09-23T10:03:52.492Z,20.10
2018-09-23T10:04:52.321Z,18.70
2018-09-23T10:05:52.346Z,11.50
2018-09-23T10:06:52.308Z,11.30
2018-09-23T10:07:52.296Z,12.00
2018-09-23T10:08:52.281Z,12.10
2018-09-23T10:09:52.291Z,18.70
2018-09-23T10:10:52.265Z,17.60
2018-09-23T10:11:52.252Z,9.00
2018-09-23T10:12:52.242Z,9.70
2018-09-23T10:13:52.229Z,10.10
2018-09-23T10:14:52.234Z,12.00
2018-09-23T10:15:52.202Z,15.10
2018-09-23T10:16:52.199Z,11.80
2018-09-23T10:17:52.185Z,19.60
2018-09-23T10:18:52.183Z,10.30
2018-09-23T10:19:52.182Z,9.50
2018-09-23T10:20:52.174Z,13.80
2018-09-23T10:21:52.140Z,11.70
2018-09-23T10:22:52.185Z,15.30
2018-09-23T10:23:52.168Z,10.50
2018-09-23T10:24:52.131Z,15.30
2018-09-23T10:25:52.107Z,14.10
2018-09-23T10:26:52.084Z,14.00
2018-09-23T10:27:52.073Z,10.30
2018-09-23T10:28:52.061Z,9.70
2018-09-23T10:29:52.082Z,8.70
2018-09-23T10:30:52.094Z,10.70
2018-09-23T10:31:52.092Z,9.20
2018-09-23T10:32:52.024Z,11.40
2018-09-23T10:33:52.013Z,14.50
2018-09-23T10:34:52.016Z,15.70
2018-09-23T10:35:51.984Z,14.70
2018-09-23T10:36:51.975Z,10.00
2018-09-23T10:37:51.984Z,14.90
2018-09-23T10:38:51.964Z,16.10
2018-09-23T10:39:51.966Z,11.50
2018-09-23T10:40:51.977Z,17.70
2018-09-23T10:41:51.934Z,19.90
2018-09-23T10:42:51.915Z,33.80
2018-09-23T10:43:51.930Z,33.30
2018-09-23T10:44:51.924Z,18.90
2018-09-23T10:45:51.880Z,17.10
2018-09-23T10:46:51.948Z,20.60
2018-09-23T10:47:51.857Z,13.90
2018-09-23T10:48:51.845Z,15.00
2018-09-23T10:49:51.834Z,21.20
2018-09-23T10:50:51.847Z,19.30
2018-09-23T10:51:51.817Z,24.40
2018-09-23T10:52:51.822Z,21.80
2018-09-23T10:53:51.794Z,25.80
2018-09-23T10:54:51.782Z,18.70
2018-09-23T10:55:51.785Z,22.70
2018-09-23T10:56:51.763Z,21.30
2018-09-23T10:57:51.758Z,39.30
2018-09-23T10:58:51.737Z,31.90
2018-09-23T10:59:51.723Z,16.60
2018-09-23T11:00:51.732Z,18.80
2018-09-23T11:01:51.734Z,40.40
2018-09-23T11:02:51.696Z,60.50
2018-09-23T11:03:51.797Z,58.80
2018-09-23T11:04:51.675Z,59.10
2018-09-23T11:05:51.663Z,45.70
2018-09-23T11:06:51.656Z,33.30
2018-09-23T11:07:51.655Z,30.10
2018-09-23T11:08:51.625Z,29.60
2018-09-23T11:09:51.649Z,60.70
2018-09-23T11:10:51.620Z,44.90
2018-09-23T11:11:51.607Z,34.70
2018-09-23T11:12:51.606Z,43.10
2018-09-23T11:13:51.579Z,23.80
2018-09-23T11:14:51.567Z,56.30
2018-09-23T11:15:51.557Z,22.70
2018-09-23T11:16:51.553Z,17.10
2018-09-23T11:17:51.558Z,29.90
2018-09-23T11:18:51.518Z,54.30
2018-09-23T11:19:51.505Z,35.10
2018-09-23T11:20:51.496Z,13.40
2018-09-23T11:21:51.489Z,20.00
2018-09-23T11:22:51.486Z,51.10
2018-09-23T11:23:51.495Z,44.00
2018-09-23T11:24:51.558Z,56.50
2018-09-23T11:25:51.472Z,36.70
2018-09-23T11:26:51.432Z,26.90
2018-09-23T11:27:51.418Z,27.00
2018-09-23T11:28:51.414Z,39.80
2018-09-23T11:29:51.420Z,49.40
2018-09-23T11:30:51.509Z,42.20
2018-09-23T11:31:51.393Z,64.70
2018-09-23T11:32:51.365Z,56.60
2018-09-23T11:33:51.356Z,50.20
2018-09-23T11:34:51.375Z,29.70
2018-09-23T11:35:51.344Z,23.70
2018-09-23T11:36:51.328Z,17.30
2018-09-23T11:37:51.320Z,35.50
2018-09-23T11:38:51.304Z,33.10
2018-09-23T11:39:51.338Z,26.20
2018-09-23T11:40:51.306Z,40.40
2018-09-23T11:41:51.274Z,36.60
2018-09-23T11:42:51.273Z,24.70
2018-09-23T11:43:51.254Z,40.10
2018-09-23T11:44:51.237Z,20.30
2018-09-23T11:45:51.229Z,17.40
2018-09-23T11:46:51.236Z,10.80
2018-09-23T11:47:51.209Z,39.90
2018-09-23T11:48:51.202Z,12.60
2018-09-23T11:49:51.185Z,38.80
2018-09-23T11:50:51.174Z,33.00
2018-09-23T11:51:51.180Z,23.20
2018-09-23T11:52:51.148Z,15.40
2018-09-23T11:53:51.139Z,29.50
2018-09-23T11:54:51.139Z,49.60
2018-09-23T11:55:51.151Z,25.30
2018-09-23T11:56:51.130Z,31.30
2018-09-23T11:57:51.125Z,29.80
2018-09-23T11:58:51.168Z,34.20
2018-09-23T11:59:51.073Z,52.70
2018-09-23T12:00:51.067Z,48.30
2018-09-23T12:01:51.075Z,28.10
2018-09-23T12:02:51.061Z,18.20
2018-09-23T12:03:51.029Z,50.40
2018-09-23T12:04:51.026Z,38.60
2018-09-23T12:05:51.010Z,20.90
2018-09-23T12:06:51.019Z,21.20
2018-09-23T12:07:50.994Z,28.90
2018-09-23T12:08:50.999Z,35.30
2018-09-23T12:09:50.969Z,54.00
2018-09-23T12:10:51.042Z,38.30
2018-09-23T12:11:50.984Z,54.20
2018-09-23T12:12:50.952Z,25.10
2018-09-23T12:13:50.923Z,28.40
2018-09-23T12:14:50.951Z,43.00
2018-09-23T12:15:50.906Z,20.40
2018-09-23T12:16:50.908Z,23.80
2018-09-23T12:17:50.891Z,26.90
2018-09-23T12:18:50.873Z,28.90
2018-09-23T12:19:50.864Z,27.10
2018-09-23T12:20:50.853Z,39.20
2018-09-23T12:21:50.861Z,27.50
2018-09-23T12:22:50.827Z,52.80
2018-09-23T12:23:50.815Z,24.30
2018-09-23T12:24:50.806Z,19.80
2018-09-23T12:25:50.810Z,77.70
2018-09-23T12:26:50.810Z,49.60
2018-09-23T12:27:50.779Z,90.50
2018-09-23T12:28:50.765Z,45.80
2018-09-23T12:29:50.765Z,50.00
2018-09-23T12:30:50.738Z,34.60
2018-09-23T12:31:50.747Z,46.20
2018-09-23T12:32:50.721Z,49.00
2018-09-23T12:33:50.778Z,53.00
2018-09-23T12:34:50.696Z,36.70
2018-09-23T12:35:50.690Z,48.60
2018-09-23T12:36:50.698Z,29.70
2018-09-23T12:37:50.662Z,45.70
2018-09-23T12:38:50.658Z,28.10
2018-09-23T12:39:50.705Z,30.70
2018-09-23T12:40:50.634Z,26.90
2018-09-23T12:41:50.661Z,30.40
2018-09-23T12:42:50.616Z,36.80
2018-09-23T12:43:50.599Z,25.10
2018-09-23T12:44:50.589Z,23.30
2018-09-23T12:45:50.591Z,31.30
2018-09-23T12:46:50.590Z,42.50
2018-09-23T12:47:50.590Z,29.80
2018-09-23T12:48:50.544Z,57.70
2018-09-23T12:49:50.540Z,47.80
2018-09-23T12:50:50.531Z,41.20
2018-09-23T12:51:50.514Z,51.20
2018-09-23T12:52:50.507Z,57.50
2018-09-23T12:53:50.520Z,64.70
2018-09-23T12:54:50.485Z,95.80